Terminal Aerodrome Forecast
Issued by NWS Cleveland, OH

Home | Current Version | Previous Version | Text Only | Print | Product List | Glossary On
Versions: 1 2 3 4 5 6 7 8 9 10 11 12 13 14 15 16 17 18 19
000
FTUS41 KCLE 312300
TAFYNG
TAF
KYNG 312323Z 0100/0124 23003KT P6SM FEW250
      TEMPO 0109/0113 5SM BR
     FM011400 25003KT P6SM SCT250
     FM011900 21004KT P6SM SCT050=

USA.gov is the U.S. government's official web portal to all federal, state and local government web resources and services.